Adrian, Washington
Current Conditions -  °F | °C
As of 8:43 PM on Wednesday 26 Nov 2014 (Local Time) from KEPH Reporting Station
Haze Haze  
Wind Chill: 38°   Ceiling: 200
Heat Index: 38°   Visibility: 3mi
Dew Point: 37°   Wind: 0mph
Humidity: 97%   Direction: NA
Pressure: 29.98"   Gusts: NA
Location:  47.4314°N, 119.485°W
Report Text: KEPH 270443Z AUTO 00000KT 3SM BR OVC002 03/03 A2998 RMK AO2 T00330028
Loading
Personal Weather Stations






























Interactive Weather Map New forecast layout! Learn more

10-Day Weather Forecast

Advertisements
Track Severe Weather on mobile